Latest Weather Observations for Noonamah

IDD60901

Issued at 10:41 am CST Sunday 18 February 2018 (issued every 10 minutes, with the page automatically refreshed every 10 minutes)

About weather observations | Map of Darwin area stations | Latest observations for Darwin area | Other Formats
Station Details ID: 014314 Name: NOONAMAH AIRSTRIP Lat: -12.61 Lon: 131.05 Height: 17.5 m
Data from the previous 72 hours. | See also: Recent months at Noonamah
Date/Time
CST
Temp
°C
App
Temp
°C
Dew
Point
°C
Rel
Hum
%
Delta-T
°C
Wind Press
QNH
hPa
Press
MSL
hPa
Rain since
9am
mm
Dir  Spd
km/h
Gust
km/h
Spd
kts
Gust
kts
18/10:30am 25.1 28.3 23.7 92 1.0 N 13 24 7 13 1010.2 1010.0 22.0
18/10:00am 27.4 33.6 25.8 91 1.1 SSE 4 6 2 3 1009.7 1009.5 4.4
18/09:30am 29.6 35.4 26.0 81 2.6 NNE 7 17 4 9 1009.6 1009.4 0.0
18/09:00am 28.9 35.0 26.5 87 1.7 NE 7 13 4 7 1009.6 1009.4 3.4
18/08:30am 27.2 34.1 26.3 95 0.6 NE 2 6 1 3 1009.6 1009.4 3.4
18/08:00am 26.5 32.6 26.2 98 0.2 ENE 6 6 3 3 1009.2 1009.0 3.4
18/07:30am 26.1 32.3 25.8 98 0.2 ENE 4 7 2 4 1008.8 1008.6 3.4
18/07:00am 25.8 32.2 25.5 98 0.2 E 2 4 1 2 1008.4 1008.2 3.4
18/06:30am 25.6 32.1 25.1 97 0.3 CALM 0 0 0 0 1008.2 1008.0 3.4
18/06:00am 25.6 32.1 25.1 97 0.3 CALM 0 0 0 0 1007.9 1007.7 3.4
18/05:30am 25.6 31.5 25.3 98 0.2 ESE 4 6 2 3 1007.5 1007.3 3.4
18/05:00am 25.6 32.1 25.1 97 0.3 CALM 0 0 0 0 1007.5 1007.3 3.4
18/04:30am 25.8 32.4 25.3 97 0.4 CALM 0 0 0 0 1007.3 1007.1 3.2
18/04:00am 25.8 32.4 25.3 97 0.3 CALM 0 0 0 0 1007.2 1007.0 3.2
18/03:30am 25.8 32.4 25.3 97 0.4 CALM 0 0 0 0 1007.4 1007.2 3.2
18/03:00am 25.9 32.6 25.4 97 0.4 CALM 0 0 0 0 1007.6 1007.4 3.2
18/02:30am 26.0 32.8 25.5 97 0.4 CALM 0 0 0 0 1007.8 1007.6 3.2
18/02:00am 26.1 32.9 25.6 97 0.4 CALM 0 0 0 0 1008.0 1007.8 3.0
18/01:30am 26.1 32.8 25.4 96 0.5 CALM 0 0 0 0 1008.4 1008.2 3.0
18/01:00am 26.3 33.1 25.6 96 0.5 CALM 0 0 0 0 1008.6 1008.4 3.0
18/12:30am 26.3 33.1 25.6 96 0.5 CALM 0 0 0 0 1009.0 1008.8 3.0
18/12:00am 26.3 33.1 25.6 96 0.5 CALM 0 0 0 0 1009.1 1008.9 3.0
 
Date/Time
CST
Temp
°C
App
Temp
°C
Dew
Point
°C
Rel
Hum
%
Delta-T
°C
Wind Press
QNH
hPa
Press
MSL
hPa
Rain since
9am
mm
Dir  Spd
km/h
Gust
km/h
Spd
kts
Gust
kts
17/11:30pm 26.3 33.1 25.6 96 0.5 CALM 0 0 0 0 1009.3 1009.1 3.0
17/11:00pm 26.3 33.1 25.6 96 0.5 CALM 0 2 0 1 1009.4 1009.2 3.0
17/10:30pm 26.3 33.1 25.6 96 0.5 CALM 0 0 0 0 1009.2 1009.0 3.0
17/10:00pm 26.4 33.2 25.5 95 0.6 CALM 0 0 0 0 1008.9 1008.7 3.0
17/09:30pm 26.5 33.5 25.8 96 0.5 CALM 0 0 0 0 1008.8 1008.6 3.0
17/09:00pm 26.5 33.3 25.6 95 0.6 CALM 0 0 0 0 1008.5 1008.3 3.0
17/08:30pm 26.6 33.4 25.6 94 0.7 CALM 0 0 0 0 1008.2 1008.0 3.0
17/08:00pm 26.5 33.1 25.3 93 0.8 CALM 0 0 0 0 1007.9 1007.7 3.0
17/07:30pm 26.9 33.5 25.3 91 1.1 CALM 0 0 0 0 1007.6 1007.4 3.0
17/07:00pm 27.4 34.1 25.4 89 1.4 CALM 0 0 0 0 1007.2 1007.0 3.0
17/06:30pm 27.7 33.7 24.9 85 2.0 N 2 6 1 3 1007.1 1006.9 3.0
17/06:00pm 28.0 33.7 25.0 84 2.1 NW 4 9 2 5 1007.0 1006.8 3.0
17/05:30pm 27.9 33.2 24.9 84 2.1 NW 6 13 3 7 1007.0 1006.8 3.0
17/05:00pm 27.6 32.5 24.6 84 2.1 NW 7 11 4 6 1006.7 1006.5 3.0
17/04:30pm 27.1 32.6 24.6 86 1.7 N 4 9 2 5 1006.9 1006.7 3.0
17/04:00pm 26.5 32.5 24.9 91 1.1 NNW 2 9 1 5 1007.1 1006.9 3.0
17/03:30pm 26.3 31.8 25.3 94 0.7 NNW 6 11 3 6 1007.2 1007.0 3.0
17/03:00pm 26.6 33.3 25.4 93 0.8 CALM 0 0 0 0 1007.5 1007.3 2.4
17/02:30pm 26.7 33.3 25.8 95 0.6 SW 2 6 1 3 1007.8 1007.6 2.0
17/02:00pm 26.2 31.9 25.0 93 0.8 W 4 7 2 4 1008.3 1008.1 2.0
17/01:30pm 26.6 32.4 25.2 92 1.0 W 4 7 2 4 1009.0 1008.8 0.4
17/01:00pm 26.7 32.3 24.9 90 1.3 SW 4 9 2 5 1009.2 1009.0 0.0
17/12:30pm 28.0 32.9 24.6 82 2.4 W 7 11 4 6 1009.5 1009.3 0.0
17/12:00pm 30.6 35.1 24.0 68 4.6 N 7 15 4 8 1009.5 1009.3 0.0
17/11:30am 30.1 35.5 25.2 75 3.5 N 6 11 3 6 1009.6 1009.4 0.0
17/11:00am 29.5 34.6 25.0 77 3.2 NNE 7 13 4 7 1009.8 1009.6 0.0
17/10:30am 28.6 33.7 25.0 81 2.5 NE 7 15 4 8 1010.0 1009.8 0.0
17/10:00am 28.2 33.1 25.2 84 2.1 ENE 9 15 5 8 1009.9 1009.7 0.0
17/09:30am 27.7 32.5 25.1 86 1.8 ENE 9 15 5 8 1009.9 1009.7 0.0
17/09:00am 27.3 32.4 24.9 87 1.7 NE 7 13 4 7 1009.9 1009.7 -
17/08:30am 26.4 31.2 24.4 89 1.4 NE 7 13 4 7 1009.9 1009.7 -
17/08:00am 25.3 30.2 24.3 94 0.7 ENE 6 7 3 4 1009.8 1009.6 -
17/07:30am 24.5 30.3 24.0 97 0.3 CALM 0 0 0 0 1009.6 1009.4 -
17/07:00am 23.9 29.5 23.6 98 0.2 CALM 0 2 0 1 1009.2 1009.0 -
17/06:30am 23.9 28.8 23.6 98 0.2 E 4 6 2 3 1008.9 1008.7 -
17/06:00am 23.9 29.4 23.4 97 0.3 CALM 0 0 0 0 1009.1 1008.9 -
17/05:30am 23.9 29.4 23.4 97 0.3 CALM 0 4 0 2 1008.7 1008.5 -
17/05:00am 23.9 28.3 23.4 97 0.3 E 6 7 3 4 1008.3 1008.1 -
17/04:30am 24.0 28.4 23.5 97 0.3 ENE 6 7 3 4 1008.4 1008.2 -
17/04:00am 24.1 28.7 23.8 98 0.2 E 6 7 3 4 1008.4 1008.2 -
17/03:30am 24.0 28.5 23.7 98 0.2 ESE 6 7 3 4 1008.3 1008.1 -
17/03:00am 23.8 28.1 23.3 97 0.3 ESE 6 7 3 4 1008.6 1008.4 12.0
17/02:30am 23.7 28.3 23.2 97 0.3 NE 4 7 2 4 1009.1 1008.9 -
17/02:00am 24.1 27.9 23.4 96 0.5 ENE 9 17 5 9 1009.4 1009.2 -
17/01:30am 24.8 29.7 24.3 97 0.3 NE 6 11 3 6 1009.8 1009.6 -
17/01:00am 25.0 30.0 24.5 97 0.3 E 6 9 3 5 1009.9 1009.7 -
17/12:30am 25.0 29.7 24.3 96 0.5 E 7 11 4 6 1010.5 1010.3 -
17/12:00am 25.6 31.0 25.1 97 0.3 SE 6 13 3 7 1010.3 1010.1 -
 
Date/Time
CST
Temp
°C
App
Temp
°C
Dew
Point
°C
Rel
Hum
%
Delta-T
°C
Wind Press
QNH
hPa
Press
MSL
hPa
Rain since
9am
mm
Dir  Spd
km/h
Gust
km/h
Spd
kts
Gust
kts
16/11:30pm 25.6 32.1 25.1 97 0.3 CALM 0 0 0 0 1010.6 1010.4 -
16/11:00pm 25.5 32.0 25.0 97 0.3 CALM 0 0 0 0 1010.7 1010.5 -
16/10:30pm 25.4 31.8 24.9 97 0.3 CALM 0 4 0 2 1010.6 1010.4 -
16/10:00pm 25.4 31.8 24.9 97 0.3 CALM 0 4 0 2 1010.1 1009.9 -
16/09:30pm 25.7 32.3 25.2 97 0.3 CALM 0 2 0 1 1010.0 1009.8 -
16/09:00pm 25.7 32.3 25.2 97 0.3 CALM 0 0 0 0 1009.8 1009.6 -
16/08:30pm 25.7 31.9 25.2 97 0.3 E 2 4 1 2 1009.4 1009.2 -
16/08:00pm 25.7 31.5 25.2 97 0.3 ENE 4 6 2 3 1009.1 1008.9 4.2
16/07:30pm 25.9 32.5 25.2 96 0.5 CALM 0 0 0 0 1008.5 1008.3 4.0
16/07:00pm 26.0 32.5 25.1 95 0.6 CALM 0 0 0 0 1008.6 1008.4 3.8
16/06:30pm 26.2 33.0 25.5 96 0.5 CALM 0 0 0 0 1008.1 1007.9 3.8
16/06:00pm 26.2 33.0 25.5 96 0.5 CALM 0 4 0 2 1008.1 1007.9 3.6
16/05:30pm 26.1 32.4 25.4 96 0.5 SSE 2 6 1 3 1008.1 1007.9 3.6
16/05:00pm 25.9 31.3 25.2 96 0.5 SSE 6 7 3 4 1008.0 1007.8 3.6
16/04:30pm 25.8 31.6 25.1 96 0.5 SSE 4 6 2 3 1008.4 1008.2 3.6
16/04:00pm 25.6 32.0 24.9 96 0.5 CALM 0 0 0 0 1008.5 1008.3 3.4
16/03:30pm 25.4 31.5 24.5 95 0.6 CALM 0 0 0 0 1008.9 1008.7 3.0
16/03:00pm 25.1 31.0 24.1 94 0.7 CALM 0 0 0 0 1008.9 1008.7 2.0
16/02:30pm 25.1 30.6 24.1 94 0.7 NNW 2 6 1 3 1009.0 1008.8 1.6
16/02:00pm 26.1 30.4 24.3 90 1.2 NNE 9 15 5 8 1009.4 1009.2 0.8
16/01:30pm 26.8 32.1 25.0 90 1.3 E 6 7 3 4 1009.5 1009.3 0.6
16/01:00pm 26.9 33.5 25.3 91 1.1 CALM 0 6 0 3 1009.0 1008.8 0.6
16/12:30pm 27.0 33.1 25.6 92 1.0 ENE 4 6 2 3 1009.9 1009.7 0.6
16/12:00pm 26.8 32.4 24.8 89 1.4 NNE 4 7 2 4 1010.1 1009.9 0.6
16/11:30am 27.3 32.5 25.1 88 1.5 NE 7 11 4 6 1010.0 1009.8 0.6
16/11:00am 27.6 33.0 25.2 87 1.7 NNW 6 7 3 4 1010.3 1010.1 0.6
16/10:30am 29.8 35.1 24.9 75 3.4 N 6 9 3 5 1010.3 1010.1 0.0
16/10:00am 29.1 35.5 26.1 84 2.1 NNE 4 9 2 5 1010.6 1010.4 0.0
16/09:30am 28.0 34.3 26.0 89 1.4 NE 4 7 2 4 1010.7 1010.5 0.0
16/09:00am 27.1 33.2 25.7 92 1.0 E 4 6 2 3 1010.7 1010.5 10.0
16/08:30am 26.4 32.8 25.5 95 0.6 ENE 2 6 1 3 1010.7 1010.5 10.0
16/08:00am 25.7 31.9 25.2 97 0.3 E 2 6 1 3 1010.5 1010.3 10.0
16/07:30am 25.2 31.1 24.7 97 0.3 ENE 2 6 1 3 1010.3 1010.1 10.0
16/07:00am 24.8 30.8 24.3 97 0.3 CALM 0 0 0 0 1009.7 1009.5 10.0
16/06:30am 24.8 30.8 24.3 97 0.3 CALM 0 0 0 0 1009.5 1009.3 10.0
16/06:00am 24.7 30.7 24.2 97 0.3 CALM 0 0 0 0 1009.2 1009.0 10.0
16/05:30am 24.7 30.7 24.2 97 0.3 CALM 0 0 0 0 1009.0 1008.8 10.0
16/05:00am 24.6 30.5 24.1 97 0.3 CALM 0 6 0 3 1008.7 1008.5 9.8
16/04:30am 24.5 30.3 24.0 97 0.3 CALM 0 0 0 0 1008.5 1008.3 9.8
16/04:00am 24.4 30.1 23.7 96 0.5 CALM 0 0 0 0 1008.7 1008.5 9.8
16/03:30am 24.4 29.7 23.7 96 0.5 E 2 4 1 2 1009.1 1008.9 9.6
16/03:00am 24.4 29.3 23.7 96 0.5 E 4 6 2 3 1009.5 1009.3 9.4
16/02:30am 24.4 29.3 23.7 96 0.5 ENE 4 7 2 4 1009.7 1009.5 9.2
16/02:00am 24.3 28.6 23.6 96 0.5 ENE 7 15 4 8 1010.0 1009.8 9.0
16/01:30am 24.6 28.9 23.7 95 0.6 ENE 7 13 4 7 1010.3 1010.1 9.0
16/01:00am 25.1 29.0 24.2 95 0.6 ENE 11 13 6 7 1010.6 1010.4 8.2
16/12:30am 25.5 31.1 24.8 96 0.5 ENE 4 7 2 4 1010.9 1010.7 8.0
16/12:00am 25.6 31.7 25.1 97 0.3 ENE 2 6 1 3 1011.1 1010.9 8.0
 
Date/Time
CST
Temp
°C
App
Temp
°C
Dew
Point
°C
Rel
Hum
%
Delta-T
°C
Wind Press
QNH
hPa
Press
MSL
hPa
Rain since
9am
mm
Dir  Spd
km/h
Gust
km/h
Spd
kts
Gust
kts
15/11:30pm 25.6 31.6 24.9 96 0.5 ENE 2 4 1 2 1011.3 1011.1 7.8
15/11:00pm 25.6 31.6 24.9 96 0.5 ENE 2 6 1 3 1011.3 1011.1 7.6
15/10:30pm 25.5 31.1 24.8 96 0.5 ESE 4 6 2 3 1011.1 1010.9 7.4
15/10:00pm 25.2 30.2 24.5 96 0.5 ESE 6 9 3 5 1010.7 1010.5 7.0
15/09:30pm 25.1 30.3 24.2 95 0.6 ESE 4 7 2 4 1010.8 1010.6 7.0
15/09:00pm 25.1 29.7 24.1 94 0.7 SE 7 9 4 5 1010.6 1010.4 7.0
15/08:30pm 25.4 29.8 24.5 95 0.6 SE 9 15 5 8 1010.4 1010.2 7.0
15/08:00pm 25.5 30.2 24.3 93 0.8 ESE 7 9 4 5 1010.0 1009.8 5.0
15/07:30pm 25.5 30.9 24.5 94 0.7 SE 4 6 2 3 1009.4 1009.2 5.0
15/07:00pm 25.7 30.6 24.3 92 1.0 SE 6 7 3 4 1008.9 1008.7 5.0
15/06:30pm 26.0 31.1 25.0 94 0.7 SSE 7 11 4 6 1008.8 1008.6 5.0
15/06:00pm 26.7 33.6 25.7 94 0.7 CALM 0 0 0 0 1008.6 1008.4 5.0
15/05:30pm 26.4 32.9 25.0 92 1.0 CALM 0 4 0 2 1008.3 1008.1 4.6
15/05:00pm 26.4 30.9 24.6 90 1.2 WNW 9 13 5 7 1008.1 1007.9 4.4
15/04:30pm 28.8 34.1 25.2 81 2.5 SE 7 9 4 5 1007.8 1007.6 0.0
15/04:00pm 28.5 34.0 24.7 80 2.7 S 4 7 2 4 1007.9 1007.7 0.0
15/03:30pm 29.1 33.5 24.4 76 3.3 SSE 9 13 5 7 1008.1 1007.9 0.0
15/03:00pm 32.0 36.9 24.6 65 5.2 NNW 7 13 4 7 1008.2 1008.0 0.0
15/02:30pm 31.5 36.3 24.4 66 5.0 NW 7 11 4 6 1008.6 1008.4 0.0
15/02:00pm 31.6 36.1 23.7 63 5.5 NNW 6 9 3 5 1008.8 1008.6 0.0
15/01:30pm 32.0 37.0 23.8 62 5.7 NE 4 9 2 5 1009.3 1009.1 0.0
15/01:00pm 31.7 36.4 24.0 63 5.4 N 6 9 3 5 1009.8 1009.6 0.0
15/12:30pm 30.8 36.1 24.4 68 4.5 N 4 9 2 5 1010.3 1010.1 0.0
15/12:00pm 30.2 35.9 25.0 73 3.7 NNW 4 7 2 4 1010.8 1010.6 0.0
15/11:30am 30.8 35.9 24.9 71 4.2 NE 7 13 4 7 1011.1 1010.9 0.0
15/11:00am 30.0 35.5 25.3 76 3.3 NE 6 9 3 5 1011.4 1011.2 0.0

Latest Capital City Observations: Canberra | Sydney | Melbourne | Brisbane | Adelaide | Perth | Hobart | Darwin

Other Formats:

Comma delimited format used in spreadsheet applications
http://www.bom.gov.au/fwo/IDD60901/IDD60901.94105.axf

JavaScript Object Notation format (JSON) in row-major order
http://www.bom.gov.au/fwo/IDD60901/IDD60901.94105.json